Time;durP1;ratioP1;P1;durP2;ratioP2;P2;SDS_P1;SDS_P2;PMS_P1;PMS_P2;Temp;Humidity;BMP_temperature;BMP_pressure;BME280_temperature;BME280_humidity;BME280_pressure;Samples;Min_cycle;Max_cycle;Signal;HPM_P1;HPM_P2
2021/10/23 00:01:14;289807.00;0.97;500.40;79991.00;0.27;139.02;;;;;13.80;1.00;;;;;;2268746;61;1938;-82
2021/10/23 00:03:41;323031.00;1.08;557.51;78061.00;0.26;135.69;;;;;13.90;1.00;;;;;;2268570;61;1317;-81
2021/10/23 00:06:08;536830.00;1.79;925.26;84238.00;0.28;146.36;;;;;14.20;1.00;;;;;;2268444;61;1574;-82
2021/10/23 00:08:35;350554.00;1.17;604.81;87878.00;0.29;152.64;;;;;14.00;1.00;;;;;;2268883;61;1054;-81
2021/10/23 00:11:04;302071.00;1.01;521.48;88666.00;0.30;154.00;;;;;13.40;1.00;;;;;;2268839;61;1156;-81
2021/10/23 00:13:31;414378.00;1.38;714.52;81711.00;0.27;141.99;;;;;13.40;1.00;;;;;;2268802;61;1225;-80
2021/10/23 00:15:58;348746.00;1.16;601.71;87767.00;0.29;152.45;;;;;13.10;1.00;;;;;;2268707;61;1337;-79
2021/10/23 00:18:26;282603.00;0.94;488.01;89203.00;0.30;154.93;;;;;12.80;1.00;;;;;;2259816;60;1052;-79
2021/10/23 00:20:53;490188.00;1.63;844.93;88602.00;0.30;153.89;;;;;12.60;1.00;;;;;;2276882;60;2028;-81
2021/10/23 00:23:20;338656.00;1.13;584.36;93030.00;0.31;161.54;;;;;12.50;1.00;;;;;;2277165;61;1200;-80
2021/10/23 00:25:47;366982.00;1.22;633.05;77224.00;0.26;134.24;;;;;12.30;1.00;;;;;;2276375;61;1583;-79
2021/10/23 00:28:14;345435.00;1.15;596.02;84260.00;0.28;146.40;;;;;12.40;1.00;;;;;;2277183;60;1228;-79
2021/10/23 00:30:41;349091.00;1.16;602.30;87356.00;0.29;151.74;;;;;12.50;1.00;;;;;;2266756;60;1025;-80
2021/10/23 00:33:08;407635.00;1.36;702.93;95020.00;0.32;164.98;;;;;13.00;1.00;;;;;;2277002;60;1818;-80
2021/10/23 00:35:37;446401.00;1.49;769.59;93801.00;0.31;162.87;;;;;13.10;1.00;;;;;;2277047;60;1726;-80
2021/10/23 00:38:04;253045.00;0.84;437.19;85812.00;0.29;149.08;;;;;13.20;1.00;;;;;;2277196;60;1005;-81
2021/10/23 00:40:31;296636.00;0.99;512.14;91697.00;0.31;159.24;;;;;13.10;1.00;;;;;;2276933;60;2036;-79
2021/10/23 00:42:59;408384.00;1.36;704.22;86057.00;0.29;149.50;;;;;13.20;1.00;;;;;;2270140;61;926;-80
2021/10/23 00:45:26;584745.00;1.95;1007.89;88397.00;0.29;153.54;;;;;12.70;1.00;;;;;;2276954;60;1718;-81
2021/10/23 00:47:53;271215.00;0.90;468.43;89302.00;0.30;155.10;;;;;12.80;1.00;;;;;;2270024;61;1045;-78
2021/10/23 00:50:20;232183.00;0.77;401.30;83803.00;0.28;145.61;;;;;12.70;1.00;;;;;;2276974;60;1599;-77
2021/10/23 00:52:49;260281.00;0.87;449.63;84998.00;0.28;147.67;;;;;12.80;1.00;;;;;;2277037;61;1343;-77
2021/10/23 00:55:16;201404.00;0.67;348.34;79397.00;0.26;138.00;;;;;13.10;1.00;;;;;;2277136;60;1367;-80
2021/10/23 00:57:43;287148.00;0.96;495.83;83365.00;0.28;144.85;;;;;13.40;1.00;;;;;;2277193;60;1161;-80
2021/10/23 01:00:11;291532.00;0.97;503.36;90525.00;0.30;157.21;;;;;13.90;1.00;;;;;;2277008;60;1986;-79
2021/10/23 01:02:38;406899.00;1.36;701.67;94964.00;0.32;164.88;;;;;14.20;1.00;;;;;;2266555;61;960;-78
2021/10/23 01:05:08;565406.00;1.88;974.52;172051.00;0.57;297.80;;;;;14.40;1.00;;;;;;2276881;60;1386;-80
2021/10/23 01:07:36;348521.00;1.16;601.32;89831.00;0.30;156.02;;;;;14.60;1.00;;;;;;2277076;60;1238;-77
2021/10/23 01:10:05;340592.00;1.14;587.69;92665.00;0.31;160.91;;;;;14.80;1.00;;;;;;2276430;60;1034;-78
2021/10/23 01:12:33;516922.00;1.72;890.96;111916.00;0.37;194.14;;;;;14.80;1.00;;;;;;2277033;60;1256;-79
2021/10/23 01:15:00;370549.00;1.24;639.18;93622.00;0.31;162.56;;;;;14.60;1.00;;;;;;2270083;61;1427;-80
2021/10/23 01:17:27;204132.00;0.68;353.04;84998.00;0.28;147.67;;;;;14.80;1.00;;;;;;2276990;60;1746;-79
2021/10/23 01:19:57;693095.00;2.31;1195.27;159905.00;0.53;276.88;;;;;15.00;1.00;;;;;;2276995;60;1996;-79
2021/10/23 01:22:28;351772.00;1.17;606.91;90298.00;0.30;156.82;;;;;14.90;1.00;;;;;;2277080;60;1226;-81
2021/10/23 01:24:56;333952.00;1.11;576.28;86502.00;0.29;150.27;;;;;14.90;1.00;;;;;;2269905;61;1089;-81
2021/10/23 01:27:23;390719.00;1.30;673.85;146103.00;0.49;253.09;;;;;14.70;1.00;;;;;;2276832;61;1327;-81
2021/10/23 01:29:51;288767.00;0.96;498.61;87684.00;0.29;152.31;;;;;14.80;1.00;;;;;;2266683;61;1005;-78
2021/10/23 01:32:18;497752.00;1.66;857.95;133747.00;0.45;231.79;;;;;14.50;1.00;;;;;;2276653;61;1611;-79
2021/10/23 01:34:45;426326.00;1.42;735.07;86897.00;0.29;150.95;;;;;13.90;1.00;;;;;;2276907;61;1129;-79
2021/10/23 01:37:15;256362.00;0.85;442.89;85813.00;0.29;149.08;;;;;13.80;1.00;;;;;;2276765;61;1737;-78
2021/10/23 01:39:42;296711.00;0.99;512.27;97627.00;0.33;169.48;;;;;13.20;1.00;;;;;;2266456;61;1916;-80
2021/10/23 01:42:09;469294.00;1.56;808.97;122938.00;0.41;213.15;;;;;13.00;1.00;;;;;;2276923;61;1126;-79
2021/10/23 01:44:37;475644.00;1.59;819.90;97477.00;0.32;169.22;;;;;13.00;1.00;;;;;;2276948;61;1241;-79
2021/10/23 01:47:06;491685.00;1.64;847.51;141154.00;0.47;244.56;;;;;13.00;1.00;;;;;;2276824;61;1281;-80
2021/10/23 01:49:32;288381.00;0.96;497.95;94711.00;0.32;164.44;;;;;13.00;1.00;;;;;;2276913;61;1148;-78
2021/10/23 01:51:59;330078.00;1.10;569.62;83031.00;0.28;144.27;;;;;13.00;1.00;;;;;;2276855;61;1080;-79
2021/10/23 01:54:28;303571.00;1.01;524.06;90607.00;0.30;157.36;;;;;13.30;1.00;;;;;;2276883;61;1283;-80
2021/10/23 01:56:55;453001.00;1.51;780.94;93654.00;0.31;162.62;;;;;13.30;1.00;;;;;;2276860;61;1298;-81
2021/10/23 01:59:21;198889.00;0.66;344.01;84254.00;0.28;146.38;;;;;13.50;1.00;;;;;;2276207;61;1124;-79
2021/10/23 02:01:48;200485.00;0.67;346.76;86986.00;0.29;151.10;;;;;13.60;1.00;;;;;;2276937;61;1923;-79
2021/10/23 02:04:15;375907.00;1.25;648.39;82441.00;0.27;143.25;;;;;14.00;1.00;;;;;;2266483;61;993;-81
2021/10/23 02:06:42;276758.00;0.92;477.96;87499.00;0.29;151.99;;;;;14.40;1.00;;;;;;2269731;61;1420;-78
2021/10/23 02:09:09;329374.00;1.10;568.41;82162.00;0.27;142.77;;;;;14.80;1.00;;;;;;2269821;61;1028;-80
2021/10/23 02:14:59;45336.00;0.15;79.12;0.00;0.00;0.62;;;;;15.40;1.00;;;;;;2276553;61;934;-80
2021/10/23 02:17:26;537005.00;1.79;925.56;85528.00;0.29;148.59;;;;;15.60;1.00;;;;;;2266080;61;1172;-78
2021/10/23 02:19:53;884485.00;2.95;1528.89;109791.00;0.37;190.47;;;;;15.10;1.00;;;;;;2266023;61;1990;-77
2021/10/23 02:22:20;530779.00;1.77;914.83;88239.00;0.29;153.27;;;;;13.90;1.00;;;;;;2276334;61;1586;-80
2021/10/23 02:24:47;521013.00;1.74;898.01;87795.00;0.29;152.50;;;;;13.30;1.00;;;;;;2276296;61;1275;-79
2021/10/23 02:27:14;794752.00;2.65;1371.97;92364.00;0.31;160.39;;;;;12.90;1.00;;;;;;2263617;61;1318;-79
2021/10/23 02:29:41;511602.00;1.71;881.80;87675.00;0.29;152.29;;;;;12.50;1.00;;;;;;2260365;61;1070;-80
2021/10/23 02:32:09;635178.00;2.12;1095.00;109366.00;0.36;189.74;;;;;12.00;1.00;;;;;;2263971;61;1119;-81
2021/10/23 02:34:36;408997.00;1.36;705.27;76200.00;0.25;132.47;;;;;11.70;1.00;;;;;;2257301;61;1061;-81
2021/10/23 02:37:03;457660.00;1.53;788.96;91522.00;0.31;158.94;;;;;11.70;1.00;;;;;;2257411;61;1471;-79
2021/10/23 02:40:16;499879.00;1.67;861.62;86566.00;0.29;150.38;;;;;11.80;1.00;;;;;;2254221;61;1009;-78
2021/10/23 02:42:43;256574.00;0.86;443.26;0.00;0.00;0.62;;;;;11.80;1.00;;;;;;2254261;61;989;-81
2021/10/23 02:45:11;290478.00;0.97;501.55;0.00;0.00;0.62;;;;;12.00;1.00;;;;;;2262805;60;1398;-79
2021/10/23 02:47:39;552724.00;1.84;952.66;52020.00;0.17;90.68;;;;;12.10;1.00;;;;;;2269841;60;1025;-79
2021/10/23 02:50:07;103472.00;0.34;179.56;0.00;0.00;0.62;;;;;12.20;1.00;;;;;;2268239;61;954;-80
2021/10/23 02:52:35;375674.00;1.25;647.99;44011.00;0.15;76.83;;;;;12.20;1.00;;;;;;2261645;61;1005;-81
2021/10/23 02:55:02;593189.00;1.98;1022.46;97832.00;0.33;169.83;;;;;12.30;1.00;;;;;;2268150;61;1420;-82
2021/10/23 02:57:29;212228.00;0.71;366.97;0.00;0.00;0.62;;;;;12.10;1.00;;;;;;2268298;61;1140;-79
2021/10/23 02:59:56;183496.00;0.61;317.51;0.00;0.00;0.62;;;;;12.10;1.00;;;;;;2268227;61;1115;-80
2021/10/23 03:02:23;223037.00;0.74;385.57;0.00;0.00;0.62;;;;;12.00;1.00;;;;;;2268217;61;1180;-80
2021/10/23 03:04:51;265568.00;0.89;458.72;37763.00;0.13;66.02;;;;;12.00;1.00;;;;;;2255926;61;1092;-80
2021/10/23 03:07:18;225664.00;0.75;390.09;0.00;0.00;0.62;;;;;12.00;1.00;;;;;;2257121;61;1448;-78
2021/10/23 03:09:45;251295.00;0.84;434.18;0.00;0.00;0.62;;;;;11.90;1.00;;;;;;2264111;61;963;-79
2021/10/23 03:12:12;284065.00;0.95;490.53;394.00;0.00;1.30;;;;;11.90;1.00;;;;;;2263876;61;1615;-80
2021/10/23 03:14:39;223380.00;0.74;386.16;0.00;0.00;0.62;;;;;11.90;1.00;;;;;;2257554;61;1012;-82
2021/10/23 03:17:06;202307.00;0.67;349.89;0.00;0.00;0.62;;;;;12.00;1.00;;;;;;2264079;61;1413;-79
2021/10/23 03:19:33;445200.00;1.48;767.53;13192.00;0.04;23.48;;;;;12.00;1.00;;;;;;2264092;61;1045;-80
2021/10/23 03:22:01;410404.00;1.37;707.69;72929.00;0.24;126.82;;;;;12.00;1.00;;;;;;2265501;61;1956;-81
2021/10/23 03:24:28;267321.00;0.89;461.74;36360.00;0.12;63.59;;;;;12.10;1.00;;;;;;2276600;61;1090;-80
2021/10/23 03:26:55;470844.00;1.57;811.64;11069.00;0.04;19.80;;;;;12.00;1.00;;;;;;2277336;61;1404;-80
2021/10/23 03:29:22;183748.00;0.61;317.94;0.00;0.00;0.62;;;;;12.10;1.00;;;;;;2266790;61;1054;-79
2021/10/23 03:31:49;957842.00;3.19;1657.94;143355.00;0.48;248.35;;;;;12.20;1.00;;;;;;2277298;61;1265;-80
2021/10/23 03:34:16;558243.00;1.86;962.17;0.00;0.00;0.62;;;;;12.30;1.00;;;;;;2277163;61;1733;-80
2021/10/23 03:36:42;428773.00;1.43;739.28;41848.00;0.14;73.09;;;;;12.10;1.00;;;;;;2277188;61;1718;-80
2021/10/23 03:39:11;481721.00;1.61;830.36;67495.00;0.22;117.43;;;;;12.10;1.00;;;;;;2277066;61;1585;-79
2021/10/23 03:41:40;105969.00;0.35;183.87;0.00;0.00;0.62;;;;;12.10;1.00;;;;;;2277137;61;2014;-78
2021/10/23 03:44:07;318459.00;1.06;549.65;0.00;0.00;0.62;;;;;12.10;1.00;;;;;;2277230;61;1082;-78
2021/10/23 03:46:34;666660.00;2.22;1149.47;25140.00;0.08;44.17;;;;;11.90;1.00;;;;;;2277223;61;1321;-79
2021/10/23 03:49:02;313969.00;1.05;541.93;0.00;0.00;0.62;;;;;11.90;1.00;;;;;;2266712;61;1044;-79
2021/10/23 03:51:29;420604.00;1.40;725.23;0.00;0.00;0.62;;;;;11.90;1.00;;;;;;2277097;61;1949;-81
2021/10/23 03:53:56;290608.00;0.97;501.77;0.00;0.00;0.62;;;;;11.90;1.00;;;;;;2277099;61;1373;-80
2021/10/23 03:58:55;224427.00;0.75;387.96;0.00;0.00;0.62;;;;;12.10;1.00;;;;;;2278976;61;1390;-80
2021/10/23 04:01:23;201215.00;0.67;348.02;0.00;0.00;0.62;;;;;12.00;1.00;;;;;;2276959;61;1915;-81
2021/10/23 04:03:50;283399.00;0.94;489.38;0.00;0.00;0.62;;;;;11.90;1.00;;;;;;2277193;61;1004;-79
2021/10/23 04:06:17;226468.00;0.75;391.47;0.00;0.00;0.62;;;;;11.70;1.00;;;;;;2277023;61;1411;-81
2021/10/23 04:08:44;500181.00;1.67;862.14;23609.00;0.08;41.52;;;;;11.80;1.00;;;;;;2269764;61;985;-79
2021/10/23 04:11:11;188298.00;0.63;325.78;0.00;0.00;0.62;;;;;11.80;1.00;;;;;;2269891;61;1013;-79
2021/10/23 04:13:38;285574.00;0.95;493.12;0.00;0.00;0.62;;;;;11.90;1.00;;;;;;2273979;61;1706;-80
2021/10/23 04:16:07;122439.00;0.41;212.29;0.00;0.00;0.62;;;;;12.10;1.00;;;;;;2276972;61;1486;-80
2021/10/23 04:18:34;153385.00;0.51;265.64;0.00;0.00;0.62;;;;;12.00;1.00;;;;;;2276920;61;1627;-79
2021/10/23 04:21:01;192050.00;0.64;332.24;221.00;0.00;1.00;;;;;12.20;1.00;;;;;;2276877;61;1989;-79
2021/10/23 04:23:27;156661.00;0.52;271.29;0.00;0.00;0.62;;;;;12.30;1.00;;;;;;2277021;61;1004;-80
2021/10/23 04:25:54;171418.00;0.57;296.71;0.00;0.00;0.62;;;;;12.40;1.00;;;;;;2269938;61;1658;-79
2021/10/23 04:28:21;212723.00;0.71;367.82;0.00;0.00;0.62;;;;;12.30;1.00;;;;;;2276930;61;1098;-80
2021/10/23 04:30:48;222668.00;0.74;384.93;8261.00;0.03;14.94;;;;;12.20;1.00;;;;;;2276975;61;925;-79
2021/10/23 04:33:16;192950.00;0.64;333.79;0.00;0.00;0.62;;;;;12.20;1.00;;;;;;2276953;61;1024;-80
2021/10/23 04:35:43;216129.00;0.72;373.68;0.00;0.00;0.62;;;;;12.30;1.00;;;;;;2273083;61;1459;-79
2021/10/23 04:38:11;400115.00;1.33;690.00;31308.00;0.10;54.85;;;;;12.40;1.00;;;;;;2276909;61;1012;-80
2021/10/23 04:40:38;124734.00;0.42;216.25;0.00;0.00;0.62;;;;;12.30;1.00;;;;;;2269879;61;1916;-80
2021/10/23 04:43:05;5239.00;0.02;9.70;0.00;0.00;0.62;;;;;12.30;1.00;;;;;;2276941;61;1057;-79
2021/10/23 04:45:32;96575.00;0.32;167.66;0.00;0.00;0.62;;;;;12.20;1.00;;;;;;2276791;61;1292;-79
2021/10/23 04:48:00;128546.00;0.43;222.82;0.00;0.00;0.62;;;;;12.20;1.00;;;;;;2276356;61;997;-82
2021/10/23 04:50:28;117763528.00;392.55;66155296.00;12273.00;0.04;21.89;;;;;12.10;1.00;;;;;;2271521;61;932;-80
2021/10/23 04:52:55;360407.00;1.20;621.75;95442.00;0.32;165.70;;;;;12.10;1.00;;;;;;2262657;61;1060;-82
2021/10/23 04:55:22;114068.00;0.38;197.85;0.00;0.00;0.62;;;;;12.30;1.00;;;;;;2272077;61;1400;-79
2021/10/23 04:57:49;431438.00;1.44;743.86;70879.00;0.24;123.28;;;;;12.40;1.00;;;;;;2272172;61;922;-80
2021/10/23 05:00:15;177913.00;0.59;307.90;0.00;0.00;0.62;;;;;12.20;1.00;;;;;;2265656;61;966;-80
2021/10/23 05:02:42;368986.00;1.23;636.49;21326.00;0.07;37.57;;;;;12.20;1.00;;;;;;2262294;61;2015;-82
2021/10/23 05:05:10;242986.00;0.81;419.89;0.00;0.00;0.62;;;;;12.10;1.00;;;;;;2264137;61;1310;-84
2021/10/23 05:07:38;114901.00;0.38;199.29;0.00;0.00;0.62;;;;;12.30;1.00;;;;;;2265252;61;1021;-82
2021/10/23 05:10:06;124819.00;0.42;216.39;18932.00;0.06;33.42;;;;;12.10;1.00;;;;;;2260175;61;1052;-80
2021/10/23 05:12:33;165800.00;0.55;287.03;0.00;0.00;0.62;;;;;12.00;1.00;;;;;;2260156;61;957;-79
2021/10/23 05:15:00;93187.00;0.31;161.81;0.00;0.00;0.62;;;;;12.10;1.00;;;;;;2260361;61;1814;-78
2021/10/23 05:17:27;78469.00;0.26;136.39;0.00;0.00;0.62;;;;;12.10;1.00;;;;;;2260067;61;1052;-79
2021/10/23 05:19:54;220262.00;0.73;380.79;23688.00;0.08;41.66;;;;;12.20;1.00;;;;;;2260215;61;997;-79
2021/10/23 05:22:21;119851.00;0.40;207.83;19141.00;0.06;33.78;;;;;12.20;1.00;;;;;;2254079;61;1910;-78
2021/10/23 05:24:50;475416.00;1.58;819.51;80926.00;0.27;140.64;;;;;12.00;1.00;;;;;;2264129;61;1111;-79
2021/10/23 05:27:17;93242.00;0.31;161.91;0.00;0.00;0.62;;;;;12.10;1.00;;;;;;2258595;61;1621;-81
2021/10/23 05:29:44;235724.00;0.79;407.40;0.00;0.00;0.62;;;;;12.00;1.00;;;;;;2262785;61;953;-81
2021/10/23 05:32:11;320122.00;1.07;552.51;78358.00;0.26;136.20;;;;;12.00;1.00;;;;;;2269647;61;1147;-79
2021/10/23 05:34:38;272979.00;0.91;471.47;0.00;0.00;0.62;;;;;11.90;1.00;;;;;;2269733;61;996;-80
2021/10/23 05:37:05;87753.00;0.29;152.43;0.00;0.00;0.62;;;;;12.20;1.00;;;;;;2276306;61;1279;-79
2021/10/23 05:39:32;32001.00;0.11;56.05;0.00;0.00;0.62;;;;;12.20;1.00;;;;;;2280612;61;949;-81
2021/10/23 05:42:00;224591.00;0.75;388.24;0.00;0.00;0.62;;;;;12.40;1.00;;;;;;2276743;61;2004;-81
2021/10/23 05:44:28;80412.00;0.27;139.75;0.00;0.00;0.62;;;;;12.20;1.00;;;;;;2280566;61;1196;-81
2021/10/23 05:46:55;109137.00;0.36;189.34;0.00;0.00;0.62;;;;;12.10;1.00;;;;;;2280467;61;1324;-80
2021/10/23 05:49:23;165177.00;0.55;285.96;0.00;0.00;0.62;;;;;12.20;1.00;;;;;;2280698;61;949;-80
2021/10/23 05:51:50;18002.00;0.06;31.81;0.00;0.00;0.62;;;;;12.10;1.00;;;;;;2273569;61;967;-81
2021/10/23 05:54:17;71778.00;0.24;124.83;0.00;0.00;0.62;;;;;13.10;1.00;;;;;;2276919;61;960;-79
2021/10/23 05:56:44;104869.00;0.35;181.98;0.00;0.00;0.62;;;;;13.80;1.00;;;;;;2280456;61;1661;-78
2021/10/23 05:59:14;122725.00;0.41;212.78;0.00;0.00;0.62;;;;;14.40;1.00;;;;;;2273332;61;1007;-80
2021/10/23 06:01:44;47247.00;0.16;82.42;0.00;0.00;0.62;;;;;15.00;1.00;;;;;;2280647;61;1915;-79
2021/10/23 06:04:11;76447.00;0.25;132.90;0.00;0.00;0.62;;;;;15.30;1.00;;;;;;2273452;61;997;-79
2021/10/23 06:06:39;74551.00;0.25;129.62;0.00;0.00;0.62;;;;;15.30;1.00;;;;;;2276867;61;1345;-82
2021/10/23 06:09:06;27640.00;0.09;48.50;0.00;0.00;0.62;;;;;15.30;1.00;;;;;;2280409;61;921;-78
2021/10/23 06:11:34;1922.00;0.01;3.95;0.00;0.00;0.62;;;;;15.20;1.00;;;;;;2273296;61;992;-77
2021/10/23 06:14:02;307950.00;1.03;531.59;76022.00;0.25;132.17;;;;;15.60;1.00;;;;;;2280547;61;956;-80
2021/10/23 06:16:32;36923.00;0.12;64.56;0.00;0.00;0.62;;;;;15.90;1.00;;;;;;2280509;60;1482;-79
2021/10/23 06:18:59;329026.00;1.10;567.81;22862.00;0.08;40.23;;;;;16.20;1.00;;;;;;2280463;61;1006;-81
2021/10/23 06:21:26;165941.00;0.55;287.27;0.00;0.00;0.62;;;;;16.40;1.00;;;;;;2275871;61;2020;-81
2021/10/23 06:23:52;8451.00;0.03;15.27;0.00;0.00;0.62;;;;;16.50;1.00;;;;;;2276886;61;1004;-80
2021/10/23 06:26:20;235195.00;0.78;406.49;24332.00;0.08;42.77;;;;;16.70;1.00;;;;;;2273449;61;1326;-79
2021/10/23 06:28:47;2067.00;0.01;4.20;0.00;0.00;0.62;;;;;16.60;1.00;;;;;;2276859;61;967;-81
2021/10/23 06:31:14;133972.00;0.45;232.18;27483.00;0.09;48.23;;;;;16.70;1.00;;;;;;2280499;61;933;-78
2021/10/23 06:33:43;80043.00;0.27;139.11;0.00;0.00;0.62;;;;;16.50;1.00;;;;;;2273477;61;1020;-80
2021/10/23 06:36:09;19969.00;0.07;35.22;0.00;0.00;0.62;;;;;16.30;1.00;;;;;;2280388;61;1371;-79
2021/10/23 06:38:36;124248.00;0.41;215.41;0.00;0.00;0.62;;;;;16.00;1.00;;;;;;2280575;61;992;-79
2021/10/23 06:41:03;80169.00;0.27;139.33;0.00;0.00;0.62;;;;;15.50;1.00;;;;;;2276756;61;954;-80
2021/10/23 06:43:30;27053.00;0.09;47.48;0.00;0.00;0.62;;;;;15.50;1.00;;;;;;2280456;61;1943;-80
2021/10/23 06:45:57;43404.00;0.14;75.78;0.00;0.00;0.62;;;;;15.80;1.00;;;;;;2271597;61;1403;-78
2021/10/23 06:48:24;0.00;0.00;0.62;0.00;0.00;0.62;;;;;16.20;1.00;;;;;;2271754;61;1109;-80
2021/10/23 06:50:52;105575.00;0.35;183.19;0.00;0.00;0.62;;;;;16.50;1.00;;;;;;2271753;61;1036;-79
2021/10/23 06:53:19;100701.00;0.34;174.78;0.00;0.00;0.62;;;;;17.00;1.00;;;;;;2265152;61;958;-80
2021/10/23 06:55:46;76320.00;0.25;132.68;0.00;0.00;0.62;;;;;17.30;1.00;;;;;;2265352;61;1428;-80
2021/10/23 06:58:13;49772.00;0.17;86.79;0.00;0.00;0.62;;;;;17.30;1.00;;;;;;2267399;61;1119;-82
2021/10/23 07:00:41;72001.00;0.24;125.22;0.00;0.00;0.62;;;;;17.20;1.00;;;;;;2268215;61;1006;-81
2021/10/23 07:03:09;160183.00;0.53;277.35;0.00;0.00;0.62;;;;;16.40;1.00;;;;;;2268597;61;1994;-81
2021/10/23 07:05:36;154320.00;0.51;267.25;0.00;0.00;0.62;;;;;15.80;1.00;;;;;;2268360;61;1703;-80
2021/10/23 07:08:05;42711.00;0.14;74.58;0.00;0.00;0.62;;;;;15.70;1.00;;;;;;2268562;61;1001;-79
2021/10/23 07:10:31;155682.00;0.52;269.60;0.00;0.00;0.62;;;;;16.00;1.00;;;;;;2258462;61;1141;-80
2021/10/23 07:12:58;10295.00;0.03;18.46;0.00;0.00;0.62;;;;;15.80;1.00;;;;;;2268225;61;1377;-79
2021/10/23 07:15:25;156290.00;0.52;270.65;0.00;0.00;0.62;;;;;15.50;1.00;;;;;;2270076;61;1717;-80
2021/10/23 07:17:52;71841.00;0.24;124.94;0.00;0.00;0.62;;;;;15.60;1.00;;;;;;2281063;61;980;-80
2021/10/23 07:20:19;370758.00;1.24;639.54;63352.00;0.21;110.27;;;;;15.30;1.00;;;;;;2280985;61;1025;-81
2021/10/23 07:22:46;33957.00;0.11;59.43;0.00;0.00;0.62;;;;;15.20;1.00;;;;;;2280979;61;1911;-78
2021/10/23 07:25:14;148127.00;0.49;256.58;0.00;0.00;0.62;;;;;15.10;1.00;;;;;;2280468;61;1336;-78
2021/10/23 07:27:41;0.00;0.00;0.62;0.00;0.00;0.62;;;;;15.40;1.00;;;;;;2273815;61;1056;-78
2021/10/23 07:30:09;53434.00;0.18;93.12;0.00;0.00;0.62;;;;;15.30;1.00;;;;;;2273779;61;1010;-78
2021/10/23 07:32:37;47959.00;0.16;83.66;0.00;0.00;0.62;;;;;15.30;1.00;;;;;;2280498;61;1044;-79
2021/10/23 07:35:05;45104.00;0.15;78.72;0.00;0.00;0.62;;;;;15.40;1.00;;;;;;2280454;61;1402;-80
2021/10/23 07:37:32;15961.00;0.05;28.28;0.00;0.00;0.62;;;;;15.60;1.00;;;;;;2273683;61;1070;-79
2021/10/23 07:39:59;26038.00;0.09;45.72;0.00;0.00;0.62;;;;;15.90;1.00;;;;;;2276502;61;1774;-80
2021/10/23 07:42:28;42942.00;0.14;74.98;0.00;0.00;0.62;;;;;16.00;1.00;;;;;;2273555;61;2000;-79
2021/10/23 07:44:55;11501.00;0.04;20.55;0.00;0.00;0.62;;;;;16.50;1.00;;;;;;2280913;61;1196;-78
2021/10/23 07:47:22;294482.00;0.98;508.43;18795.00;0.06;33.18;;;;;16.60;1.00;;;;;;2280757;61;1722;-81
2021/10/23 07:49:49;445411.00;1.48;767.89;54303.00;0.18;94.63;;;;;16.80;1.00;;;;;;2280438;61;1372;-78
2021/10/23 07:52:17;27227.00;0.09;47.78;0.00;0.00;0.62;;;;;16.80;1.00;;;;;;2280897;61;1020;-78
2021/10/23 07:54:45;26167.00;0.09;45.95;0.00;0.00;0.62;;;;;17.20;1.00;;;;;;2270435;61;1028;-80
2021/10/23 07:57:12;438455.00;1.46;755.93;91213.00;0.30;158.40;;;;;17.40;1.00;;;;;;2280636;61;1324;-78
2021/10/23 07:59:40;10864.00;0.04;19.45;0.00;0.00;0.62;;;;;17.80;1.00;;;;;;2273744;61;954;-79
2021/10/23 08:02:08;138397.00;0.46;239.81;0.00;0.00;0.62;;;;;17.70;1.00;;;;;;2280916;61;1919;-83
2021/10/23 08:04:35;229897.00;0.77;397.37;45888.00;0.15;80.07;;;;;17.30;1.00;;;;;;2277274;61;1017;-79
2021/10/23 08:07:05;26104.00;0.09;45.84;0.00;0.00;0.62;;;;;17.20;1.00;;;;;;2276412;61;1396;-80
2021/10/23 08:09:33;74899.00;0.25;130.23;0.00;0.00;0.62;;;;;17.00;1.00;;;;;;2276546;61;1029;-80
2021/10/23 08:12:01;40051.00;0.13;69.98;0.00;0.00;0.62;;;;;17.20;1.00;;;;;;2272948;61;1002;-82
2021/10/23 08:14:28;29744.00;0.10;52.14;0.00;0.00;0.62;;;;;17.40;1.00;;;;;;2276409;61;1175;-80
2021/10/23 08:16:56;58219.00;0.19;101.40;0.00;0.00;0.62;;;;;17.70;1.00;;;;;;2276458;61;1579;-79
2021/10/23 08:19:24;106951.00;0.36;185.57;8787.00;0.03;15.85;;;;;17.80;1.00;;;;;;2276356;61;1030;-81
2021/10/23 08:21:51;71764.00;0.24;124.81;0.00;0.00;0.62;;;;;17.70;1.00;;;;;;2276368;61;1919;-82
2021/10/23 08:24:19;11779.00;0.04;21.03;0.00;0.00;0.62;;;;;17.90;1.00;;;;;;2277201;61;1047;-81
2021/10/23 08:26:46;101096.00;0.34;175.46;19571.00;0.07;34.53;;;;;17.40;1.00;;;;;;2281054;61;1293;-80
2021/10/23 08:29:13;364972.00;1.22;629.59;100963.00;0.34;175.23;;;;;16.70;1.00;;;;;;2277069;61;984;-79
2021/10/23 08:31:41;362450.00;1.21;625.26;110696.00;0.37;192.03;;;;;16.90;1.00;;;;;;2280948;61;1104;-81
2021/10/23 08:34:09;121567.00;0.41;210.79;54103.00;0.18;94.28;;;;;16.80;1.00;;;;;;2280527;61;1272;-82
2021/10/23 08:39:05;92473.00;0.31;160.58;17675.00;0.06;31.24;;;;;17.20;1.00;;;;;;2282836;60;1382;-81
2021/10/23 08:41:32;46179.00;0.15;80.58;0.00;0.00;0.62;;;;;17.40;1.00;;;;;;2281236;60;1073;-79
2021/10/23 08:44:04;293964.00;0.98;507.54;18198.00;0.06;32.15;;;;;17.60;1.00;;;;;;2281053;60;2034;-79
2021/10/23 08:46:36;139224.00;0.46;241.23;34665.00;0.12;60.66;;;;;17.30;1.00;;;;;;2274318;60;1365;-79
2021/10/23 08:49:05;159328.00;0.53;275.88;53275.00;0.18;92.85;;;;;17.30;1.00;;;;;;2277200;60;952;-81
2021/10/23 08:51:33;0.00;0.00;0.62;0.00;0.00;0.62;;;;;17.50;1.00;;;;;;2280726;60;1621;-80
2021/10/23 08:54:01;59455.00;0.20;103.53;0.00;0.00;0.62;;;;;17.60;1.00;;;;;;2281288;60;1139;-79
2021/10/23 08:56:28;81226.00;0.27;141.15;0.00;0.00;0.62;;;;;17.30;1.00;;;;;;2273991;60;1516;-80
2021/10/23 08:58:55;121940.00;0.41;211.43;0.00;0.00;0.62;;;;;17.20;1.00;;;;;;2281199;60;1111;-79
2021/10/23 09:01:22;404328.00;1.35;697.25;95638.00;0.32;166.04;;;;;17.10;1.00;;;;;;2280980;60;1705;-80
2021/10/23 09:03:49;338772.00;1.13;584.56;92395.00;0.31;160.44;;;;;17.10;1.00;;;;;;2281100;60;2005;-80
2021/10/23 09:06:29;226507.00;0.76;391.54;31020.00;0.10;54.35;;;;;17.50;1.00;;;;;;2281081;60;1940;-81
2021/10/23 09:09:06;119561.00;0.40;207.33;33233.00;0.11;58.18;;;;;17.60;1.00;;;;;;2281011;60;1820;-79
2021/10/23 09:14:22;0.00;0.00;0.62;0.00;0.00;0.62;;;;;17.70;1.00;;;;;;2266380;61;1382;-80
2021/10/23 09:16:58;147807.00;0.49;256.03;0.00;0.00;0.62;;;;;17.90;1.00;;;;;;2260933;61;1327;-79
2021/10/23 09:19:33;94497.00;0.31;164.07;0.00;0.00;0.62;;;;;17.60;1.00;;;;;;2264733;60;1455;-80
2021/10/23 09:22:00;50095.00;0.17;87.35;0.00;0.00;0.62;;;;;17.50;1.00;;;;;;2261007;60;1907;-79
2021/10/23 09:24:28;21439.00;0.07;37.76;0.00;0.00;0.62;;;;;17.60;1.00;;;;;;2264897;60;1105;-78
2021/10/23 09:26:55;37009.00;0.12;64.71;0.00;0.00;0.62;;;;;17.70;1.00;;;;;;2264572;60;1282;-79
2021/10/23 09:29:24;162765.00;0.54;281.80;25014.00;0.08;43.95;;;;;17.40;1.00;;;;;;2257686;61;982;-81
2021/10/23 09:31:52;43097.00;0.14;75.25;0.00;0.00;0.62;;;;;17.70;1.00;;;;;;2264765;60;1106;-81
2021/10/23 09:34:21;90960.00;0.30;157.97;0.00;0.00;0.62;;;;;17.50;1.00;;;;;;2264586;60;1260;-80
2021/10/23 09:39:28;323440.00;1.08;558.21;0.00;0.00;0.62;;;;;17.60;1.00;;;;;;2287128;60;1376;-83
2021/10/23 09:42:14;75420.00;0.25;131.13;0.00;0.00;0.62;;;;;17.50;1.00;;;;;;2285182;60;987;-80
2021/10/23 09:45:01;130405.00;0.43;226.03;47838.00;0.16;83.45;;;;;17.10;1.00;;;;;;2285229;60;978;-79
2021/10/23 09:47:30;5528.00;0.02;10.20;0.00;0.00;0.62;;;;;16.80;1.00;;;;;;2280938;60;1086;-81
2021/10/23 09:50:06;22258.00;0.07;39.18;0.00;0.00;0.62;;;;;16.70;1.00;;;;;;2281123;60;980;-80
2021/10/23 09:52:34;64690.00;0.22;112.58;0.00;0.00;0.62;;;;;17.20;1.00;;;;;;2280885;60;1343;-82
2021/10/23 09:55:09;89674.00;0.30;155.74;15712.00;0.05;27.84;;;;;17.90;1.00;;;;;;2281097;60;1124;-80
2021/10/23 09:57:37;12198.00;0.04;21.76;0.00;0.00;0.62;;;;;18.50;1.00;;;;;;2280819;60;1280;-78
2021/10/23 10:00:08;79441.00;0.26;138.07;0.00;0.00;0.62;;;;;18.50;1.00;;;;;;2281121;60;1240;-79
2021/10/23 10:02:37;245060.00;0.82;423.45;27398.00;0.09;48.08;;;;;18.20;1.00;;;;;;2280996;60;1919;-81
2021/10/23 10:05:05;0.00;0.00;0.62;0.00;0.00;0.62;;;;;17.40;1.00;;;;;;2276327;60;1413;-79